sensor_id;sensor_type;location;lat;lon;timestamp;pressure;altitude;pressure_sealevel;temperature;humidity
32330;BME280;18807;52.434;13.238;2022-08-01T00:02:24;100827.53;;;21.89;71.51
32330;BME280;18807;52.434;13.238;2022-08-01T00:09:59;100830.38;;;21.85;72.84
32330;BME280;18807;52.434;13.238;2022-08-01T00:17:34;100834.31;;;21.75;73.95
32330;BME280;18807;52.434;13.238;2022-08-01T00:25:08;100848.53;;;21.52;78.21
32330;BME280;18807;52.434;13.238;2022-08-01T00:32:43;100840.75;;;21.38;82.94
32330;BME280;18807;52.434;13.238;2022-08-01T00:40:17;100822.94;;;21.28;84.98
32330;BME280;18807;52.434;13.238;2022-08-01T00:47:52;100837.41;;;21.29;84.68
32330;BME280;18807;52.434;13.238;2022-08-01T00:55:26;100829.06;;;21.35;83.29
32330;BME280;18807;52.434;13.238;2022-08-01T01:03:02;100832.81;;;21.31;84.33
32330;BME280;18807;52.434;13.238;2022-08-01T01:10:37;100825.78;;;21.24;85.78
32330;BME280;18807;52.434;13.238;2022-08-01T01:18:17;100827.50;;;21.26;85.35
32330;BME280;18807;52.434;13.238;2022-08-01T01:25:54;100832.16;;;21.23;86.95
32330;BME280;18807;52.434;13.238;2022-08-01T01:33:36;100825.91;;;21.19;87.19
32330;BME280;18807;52.434;13.238;2022-08-01T01:41:18;100815.13;;;21.16;87.75
32330;BME280;18807;52.434;13.238;2022-08-01T01:48:55;100819.84;;;21.08;89.61
32330;BME280;18807;52.434;13.238;2022-08-01T01:56:30;100814.59;;;21.02;90.48
32330;BME280;18807;52.434;13.238;2022-08-01T02:04:05;100815.66;;;20.97;91.30
32330;BME280;18807;52.434;13.238;2022-08-01T02:11:39;100811.19;;;20.93;92.94
32330;BME280;18807;52.434;13.238;2022-08-01T02:19:34;100812.25;;;20.87;94.03
32330;BME280;18807;52.434;13.238;2022-08-01T02:27:10;100821.44;;;20.82;97.38
32330;BME280;18807;52.434;13.238;2022-08-01T02:34:46;100813.44;;;20.76;99.85
32330;BME280;18807;52.434;13.238;2022-08-01T02:42:22;100817.16;;;20.73;100.00
32330;BME280;18807;52.434;13.238;2022-08-01T02:49:58;100804.59;;;20.69;100.00
32330;BME280;18807;52.434;13.238;2022-08-01T02:57:33;100808.41;;;20.61;100.00
32330;BME280;18807;52.434;13.238;2022-08-01T03:05:24;100811.19;;;20.58;100.00
32330;BME280;18807;52.434;13.238;2022-08-01T03:12:59;100810.63;;;20.45;100.00
32330;BME280;18807;52.434;13.238;2022-08-01T03:20:35;100806.16;;;20.43;100.00
32330;BME280;18807;52.434;13.238;2022-08-01T03:28:08;100819.13;;;20.30;100.00
32330;BME280;18807;52.434;13.238;2022-08-01T03:35:47;100828.34;;;20.23;100.00
32330;BME280;18807;52.434;13.238;2022-08-01T03:43:22;100825.63;;;20.23;100.00
32330;BME280;18807;52.434;13.238;2022-08-01T03:51:01;100830.94;;;20.28;100.00
32330;BME280;18807;52.434;13.238;2022-08-01T03:58:36;100831.97;;;20.22;100.00
32330;BME280;18807;52.434;13.238;2022-08-01T04:06:13;100832.13;;;20.16;100.00
32330;BME280;18807;52.434;13.238;2022-08-01T04:13:46;100833.91;;;20.17;100.00
32330;BME280;18807;52.434;13.238;2022-08-01T04:21:22;100837.50;;;20.18;100.00
32330;BME280;18807;52.434;13.238;2022-08-01T04:28:56;100843.06;;;20.12;100.00
32330;BME280;18807;52.434;13.238;2022-08-01T04:36:31;100846.59;;;20.15;100.00
32330;BME280;18807;52.434;13.238;2022-08-01T04:44:06;100849.38;;;20.11;100.00
32330;BME280;18807;52.434;13.238;2022-08-01T04:51:50;100862.06;;;20.10;100.00
32330;BME280;18807;52.434;13.238;2022-08-01T04:59:24;100860.25;;;20.12;100.00
32330;BME280;18807;52.434;13.238;2022-08-01T05:07:14;100861.03;;;20.17;100.00
32330;BME280;18807;52.434;13.238;2022-08-01T05:14:48;100866.53;;;20.14;100.00
32330;BME280;18807;52.434;13.238;2022-08-01T05:22:24;100861.88;;;20.19;100.00
32330;BME280;18807;52.434;13.238;2022-08-01T05:29:58;100856.38;;;20.22;100.00
32330;BME280;18807;52.434;13.238;2022-08-01T05:37:32;100870.66;;;20.32;100.00
32330;BME280;18807;52.434;13.238;2022-08-01T05:45:06;100868.88;;;20.31;100.00
32330;BME280;18807;52.434;13.238;2022-08-01T05:52:41;100875.03;;;20.37;100.00
32330;BME280;18807;52.434;13.238;2022-08-01T06:00:15;100869.66;;;20.34;100.00
32330;BME280;18807;52.434;13.238;2022-08-01T06:07:50;100884.13;;;20.36;100.00
32330;BME280;18807;52.434;13.238;2022-08-01T06:15:24;100882.88;;;20.49;100.00
32330;BME280;18807;52.434;13.238;2022-08-01T06:22:59;100887.84;;;20.32;100.00
32330;BME280;18807;52.434;13.238;2022-08-01T06:30:52;100890.97;;;20.13;100.00
32330;BME280;18807;52.434;13.238;2022-08-01T06:38:28;100901.59;;;20.23;100.00
32330;BME280;18807;52.434;13.238;2022-08-01T06:46:01;100897.06;;;20.22;100.00
32330;BME280;18807;52.434;13.238;2022-08-01T06:53:37;100901.56;;;20.25;100.00
32330;BME280;18807;52.434;13.238;2022-08-01T07:01:11;100900.41;;;20.36;100.00
32330;BME280;18807;52.434;13.238;2022-08-01T07:08:46;100901.09;;;20.46;100.00
32330;BME280;18807;52.434;13.238;2022-08-01T07:16:19;100903.69;;;20.50;100.00
32330;BME280;18807;52.434;13.238;2022-08-01T07:23:54;100907.28;;;20.51;100.00
32330;BME280;18807;52.434;13.238;2022-08-01T07:31:28;100909.75;;;20.61;100.00
32330;BME280;18807;52.434;13.238;2022-08-01T07:39:05;100913.91;;;20.76;100.00
32330;BME280;18807;52.434;13.238;2022-08-01T07:46:38;100925.34;;;20.90;100.00
32330;BME280;18807;52.434;13.238;2022-08-01T07:54:13;100938.78;;;20.97;100.00
32330;BME280;18807;52.434;13.238;2022-08-01T08:01:47;100943.81;;;20.74;100.00
32330;BME280;18807;52.434;13.238;2022-08-01T08:09:22;100955.81;;;20.66;100.00
32330;BME280;18807;52.434;13.238;2022-08-01T08:16:56;100946.91;;;20.99;100.00
32330;BME280;18807;52.434;13.238;2022-08-01T08:24:31;100952.06;;;21.44;94.45
32330;BME280;18807;52.434;13.238;2022-08-01T08:32:04;100942.63;;;21.57;90.61
32330;BME280;18807;52.434;13.238;2022-08-01T08:39:40;100949.41;;;21.41;90.49
32330;BME280;18807;52.434;13.238;2022-08-01T08:47:14;100949.97;;;21.55;91.42
32330;BME280;18807;52.434;13.238;2022-08-01T08:54:53;100960.53;;;21.66;87.27
32330;BME280;18807;52.434;13.238;2022-08-01T09:02:28;100962.50;;;21.61;87.65
32330;BME280;18807;52.434;13.238;2022-08-01T09:10:04;100982.50;;;21.58;88.99
32330;BME280;18807;52.434;13.238;2022-08-01T09:17:41;100987.25;;;21.50;88.13
32330;BME280;18807;52.434;13.238;2022-08-01T09:25:17;101006.34;;;21.47;88.57
32330;BME280;18807;52.434;13.238;2022-08-01T09:32:54;100995.84;;;21.67;88.61
32330;BME280;18807;52.434;13.238;2022-08-01T09:48:27;101011.75;;;21.84;84.68
32330;BME280;18807;52.434;13.238;2022-08-01T09:56:08;101023.00;;;21.69;85.81
32330;BME280;18807;52.434;13.238;2022-08-01T10:03:43;101026.63;;;21.69;86.93
32330;BME280;18807;52.434;13.238;2022-08-01T10:11:17;101035.88;;;21.62;87.17
32330;BME280;18807;52.434;13.238;2022-08-01T10:18:53;101043.56;;;21.82;85.65
32330;BME280;18807;52.434;13.238;2022-08-01T10:26:28;101046.31;;;21.81;84.22
32330;BME280;18807;52.434;13.238;2022-08-01T10:34:04;101047.00;;;21.89;84.77
32330;BME280;18807;52.434;13.238;2022-08-01T10:41:39;101036.06;;;21.90;85.32
32330;BME280;18807;52.434;13.238;2022-08-01T10:49:15;101046.75;;;21.98;84.14
32330;BME280;18807;52.434;13.238;2022-08-01T10:56:51;101035.84;;;22.31;84.07
32330;BME280;18807;52.434;13.238;2022-08-01T11:04:34;101046.22;;;22.48;80.82
32330;BME280;18807;52.434;13.238;2022-08-01T11:12:15;101043.16;;;22.60;80.12
32330;BME280;18807;52.434;13.238;2022-08-01T11:20:08;101058.09;;;22.45;77.83
32330;BME280;18807;52.434;13.238;2022-08-01T11:27:44;101072.84;;;22.38;79.78
32330;BME280;18807;52.434;13.238;2022-08-01T11:35:22;101074.75;;;22.35;78.00
32330;BME280;18807;52.434;13.238;2022-08-01T11:43:18;101084.28;;;22.19;80.25
32330;BME280;18807;52.434;13.238;2022-08-01T11:50:54;101084.81;;;22.33;81.94
32330;BME280;18807;52.434;13.238;2022-08-01T11:58:27;101088.00;;;22.47;78.75
32330;BME280;18807;52.434;13.238;2022-08-01T12:06:04;101075.53;;;22.70;77.67
32330;BME280;18807;52.434;13.238;2022-08-01T12:13:39;101081.78;;;22.75;77.77
32330;BME280;18807;52.434;13.238;2022-08-01T12:21:14;101087.44;;;22.68;77.47
32330;BME280;18807;52.434;13.238;2022-08-01T12:28:47;101078.63;;;22.89;78.16
32330;BME280;18807;52.434;13.238;2022-08-01T12:36:28;101071.81;;;23.03;75.85
32330;BME280;18807;52.434;13.238;2022-08-01T12:44:02;101068.47;;;23.24;74.99
32330;BME280;18807;52.434;13.238;2022-08-01T12:51:37;101074.00;;;23.49;72.23
32330;BME280;18807;52.434;13.238;2022-08-01T12:59:20;101068.38;;;23.53;69.41
32330;BME280;18807;52.434;13.238;2022-08-01T13:06:57;101071.16;;;23.52;70.20
32330;BME280;18807;52.434;13.238;2022-08-01T13:14:31;101080.22;;;23.54;69.50
32330;BME280;18807;52.434;13.238;2022-08-01T13:22:06;101081.88;;;23.58;68.48
32330;BME280;18807;52.434;13.238;2022-08-01T13:29:40;101077.59;;;24.05;65.66
32330;BME280;18807;52.434;13.238;2022-08-01T13:37:15;101089.47;;;24.02;64.25
32330;BME280;18807;52.434;13.238;2022-08-01T13:44:49;101084.13;;;24.25;64.36
32330;BME280;18807;52.434;13.238;2022-08-01T13:52:24;101088.69;;;24.25;63.28
32330;BME280;18807;52.434;13.238;2022-08-01T13:59:57;101094.88;;;24.04;61.89
32330;BME280;18807;52.434;13.238;2022-08-01T14:07:33;101093.22;;;24.00;62.64
32330;BME280;18807;52.434;13.238;2022-08-01T14:15:09;101105.59;;;24.10;62.84
32330;BME280;18807;52.434;13.238;2022-08-01T14:22:46;101110.66;;;24.46;62.32
32330;BME280;18807;52.434;13.238;2022-08-01T14:30:19;101102.13;;;24.80;59.77
32330;BME280;18807;52.434;13.238;2022-08-01T14:37:55;101115.16;;;24.96;57.97
32330;BME280;18807;52.434;13.238;2022-08-01T14:45:29;101118.16;;;25.37;55.26
32330;BME280;18807;52.434;13.238;2022-08-01T14:53:04;101122.44;;;25.20;54.40
32330;BME280;18807;52.434;13.238;2022-08-01T15:00:37;101140.50;;;25.24;55.73
32330;BME280;18807;52.434;13.238;2022-08-01T15:08:14;101138.75;;;24.99;56.88
32330;BME280;18807;52.434;13.238;2022-08-01T15:15:47;101140.34;;;24.81;59.41
32330;BME280;18807;52.434;13.238;2022-08-01T15:23:22;101144.09;;;24.53;61.55
32330;BME280;18807;52.434;13.238;2022-08-01T15:30:56;101147.44;;;24.36;62.65
32330;BME280;18807;52.434;13.238;2022-08-01T15:38:32;101143.41;;;24.22;63.34
32330;BME280;18807;52.434;13.238;2022-08-01T15:46:06;101150.38;;;24.30;63.58
32330;BME280;18807;52.434;13.238;2022-08-01T15:53:41;101146.44;;;24.63;62.78
32330;BME280;18807;52.434;13.238;2022-08-01T16:01:16;101150.81;;;24.69;61.87
32330;BME280;18807;52.434;13.238;2022-08-01T16:08:51;101148.81;;;24.49;62.83
32330;BME280;18807;52.434;13.238;2022-08-01T16:16:25;101164.50;;;24.43;63.07
32330;BME280;18807;52.434;13.238;2022-08-01T16:24:00;101159.31;;;24.35;62.96
32330;BME280;18807;52.434;13.238;2022-08-01T16:31:34;101157.59;;;24.33;63.31
32330;BME280;18807;52.434;13.238;2022-08-01T16:39:29;101156.16;;;24.47;62.83
32330;BME280;18807;52.434;13.238;2022-08-01T16:47:06;101150.41;;;24.55;61.65
32330;BME280;18807;52.434;13.238;2022-08-01T16:54:42;101166.06;;;24.50;62.09
32330;BME280;18807;52.434;13.238;2022-08-01T17:02:16;101163.81;;;24.36;60.84
32330;BME280;18807;52.434;13.238;2022-08-01T17:09:51;101166.22;;;24.21;61.37
32330;BME280;18807;52.434;13.238;2022-08-01T17:17:24;101173.91;;;24.08;61.72
32330;BME280;18807;52.434;13.238;2022-08-01T17:25:00;101165.09;;;24.00;62.16
32330;BME280;18807;52.434;13.238;2022-08-01T17:32:33;101166.25;;;23.92;60.82
32330;BME280;18807;52.434;13.238;2022-08-01T17:40:10;101170.97;;;23.87;60.95
32330;BME280;18807;52.434;13.238;2022-08-01T17:48:04;101173.81;;;23.84;61.37
32330;BME280;18807;52.434;13.238;2022-08-01T17:55:39;101173.94;;;23.79;61.81
32330;BME280;18807;52.434;13.238;2022-08-01T18:03:28;101178.66;;;23.74;62.16
32330;BME280;18807;52.434;13.238;2022-08-01T18:11:14;101178.06;;;23.65;62.22
32330;BME280;18807;52.434;13.238;2022-08-01T18:18:48;101183.69;;;23.60;62.99
32330;BME280;18807;52.434;13.238;2022-08-01T18:26:23;101175.78;;;23.51;63.28
32330;BME280;18807;52.434;13.238;2022-08-01T18:33:57;101190.75;;;23.38;63.00
32330;BME280;18807;52.434;13.238;2022-08-01T18:41:33;101203.75;;;23.28;63.31
32330;BME280;18807;52.434;13.238;2022-08-01T18:49:08;101205.88;;;23.16;63.13
32330;BME280;18807;52.434;13.238;2022-08-01T18:56:44;101211.56;;;23.10;63.34
32330;BME280;18807;52.434;13.238;2022-08-01T19:04:18;101224.63;;;22.97;63.47
32330;BME280;18807;52.434;13.238;2022-08-01T19:11:52;101227.59;;;22.88;64.38
32330;BME280;18807;52.434;13.238;2022-08-01T19:19:26;101237.75;;;22.82;64.76
32330;BME280;18807;52.434;13.238;2022-08-01T19:27:04;101238.22;;;22.67;65.86
32330;BME280;18807;52.434;13.238;2022-08-01T19:34:41;101250.31;;;22.55;66.80
32330;BME280;18807;52.434;13.238;2022-08-01T19:42:20;101256.03;;;22.43;68.51
32330;BME280;18807;52.434;13.238;2022-08-01T19:49:56;101273.59;;;22.30;68.77
32330;BME280;18807;52.434;13.238;2022-08-01T19:57:31;101276.63;;;22.18;70.13
32330;BME280;18807;52.434;13.238;2022-08-01T20:05:16;101280.75;;;21.98;70.77
32330;BME280;18807;52.434;13.238;2022-08-01T20:12:51;101279.53;;;21.71;68.53
32330;BME280;18807;52.434;13.238;2022-08-01T20:20:28;101300.63;;;21.60;68.35
32330;BME280;18807;52.434;13.238;2022-08-01T20:28:09;101306.16;;;21.57;68.70
32330;BME280;18807;52.434;13.238;2022-08-01T20:35:43;101309.00;;;21.51;69.47
32330;BME280;18807;52.434;13.238;2022-08-01T20:43:26;101329.09;;;21.42;70.13
32330;BME280;18807;52.434;13.238;2022-08-01T20:51:00;101332.88;;;21.34;70.73
32330;BME280;18807;52.434;13.238;2022-08-01T20:58:53;101343.94;;;21.25;71.21
32330;BME280;18807;52.434;13.238;2022-08-01T21:06:31;101347.63;;;21.22;72.25
32330;BME280;18807;52.434;13.238;2022-08-01T21:14:08;101340.50;;;21.17;73.55
32330;BME280;18807;52.434;13.238;2022-08-01T21:21:49;101348.72;;;21.12;75.79
32330;BME280;18807;52.434;13.238;2022-08-01T21:29:24;101348.06;;;20.98;77.13
32330;BME280;18807;52.434;13.238;2022-08-01T21:36:58;101354.63;;;20.84;77.38
32330;BME280;18807;52.434;13.238;2022-08-01T21:44:33;101376.53;;;20.73;77.47
32330;BME280;18807;52.434;13.238;2022-08-01T21:52:10;101384.06;;;20.55;78.37
32330;BME280;18807;52.434;13.238;2022-08-01T21:59:48;101390.69;;;20.37;78.96
32330;BME280;18807;52.434;13.238;2022-08-01T22:07:23;101396.19;;;20.33;79.30
32330;BME280;18807;52.434;13.238;2022-08-01T22:15:00;101397.13;;;20.32;79.32
32330;BME280;18807;52.434;13.238;2022-08-01T22:22:34;101411.63;;;20.29;79.36
32330;BME280;18807;52.434;13.238;2022-08-01T22:30:25;101412.63;;;20.22;79.40
32330;BME280;18807;52.434;13.238;2022-08-01T22:38:00;101408.19;;;20.17;79.30
32330;BME280;18807;52.434;13.238;2022-08-01T22:45:38;101413.66;;;20.09;79.25
32330;BME280;18807;52.434;13.238;2022-08-01T22:53:16;101400.19;;;20.03;78.69
32330;BME280;18807;52.434;13.238;2022-08-01T23:00:57;101408.44;;;19.94;78.82
32330;BME280;18807;52.434;13.238;2022-08-01T23:08:32;101405.00;;;19.83;78.43
32330;BME280;18807;52.434;13.238;2022-08-01T23:16:07;101402.34;;;19.77;78.74
32330;BME280;18807;52.434;13.238;2022-08-01T23:23:48;101409.66;;;19.70;78.72
32330;BME280;18807;52.434;13.238;2022-08-01T23:31:23;101416.09;;;19.62;77.91
32330;BME280;18807;52.434;13.238;2022-08-01T23:39:17;101416.19;;;19.53;75.41
32330;BME280;18807;52.434;13.238;2022-08-01T23:46:52;101414.50;;;19.43;72.22
32330;BME280;18807;52.434;13.238;2022-08-01T23:54:25;101413.53;;;19.47;72.62
